Flight Track Log - Related Links

Times and Time Zones

All times are in EDT time to prevent confusion due to time zone crossing. See the SWA1017 flight status page for this flight to view local times or setup timezone preferences in your user account.


Time Position Orientation Groundspeed Altitude Reporting Facility
EDT Latitude Longitude Course Direction KTS MPH feet Rate Location/Type
Wed 08:21:03 PM 33.6628 -101.7861 92° East 152 175 4,300  Level Fort Worth Center
Wed 08:21:21 PM 33.6622 -101.7683 92° East 164 189 4,800 2,051 Climbing Fort Worth Center
Wed 08:22:22 PM 33.6553 -101.6939 96° East 248 285 7,000 2,432 Climbing Fort Worth Center
Wed 08:23:12 PM 33.6392 -101.6200 105° East 265 305 9,300 2,700 Climbing Fort Worth Center
Wed 08:23:22 PM 33.6356 -101.6042 105° East 301 346 9,700 2,857 Climbing Fort Worth Center
Wed 08:24:15 PM 33.6161 -101.5144 105° East 323 372 12,300 3,078 Climbing Fort Worth Center
Wed 08:25:17 PM 33.5883 -101.3917 105° East 352 405 15,600 2,710 Climbing Fort Worth Center
Wed 08:26:19 PM 33.5481 -101.2744 112° Southeast 393 452 17,900 2,661 Climbing Fort Worth Center
Wed 08:27:21 PM 33.4597 -101.1886 141° Southeast 383 441 21,100 2,565 Climbing Fort Worth Center
Wed 08:28:23 PM 33.3761 -101.1086 141° Southeast 383 441 23,200 2,032 Climbing Fort Worth Center
Wed 08:29:25 PM 33.2972 -101.0347 142° Southeast 405 466 25,300 1,887 Climbing Fort Worth Center
Wed 08:30:27 PM 33.1864 -100.9331 142° Southeast 413 475 27,100 1,935 Climbing Fort Worth Center
Wed 08:31:29 PM 33.0833 -100.8367 142° Southeast 438 504 29,300 1,694 Climbing Fort Worth Center
Wed 08:32:31 PM 32.9933 -100.7533 142° Southeast 439 505 30,600 1,636 Climbing Fort Worth Center
Wed 08:34:36 PM 32.7903 -100.5675 142° Southeast 461 531 34,400 1,412 Climbing Fort Worth Center
Wed 08:35:38 PM 32.6747 -100.4633 143° Southeast 445 512 35,000 290 Climbing Fort Worth Center
Wed 08:36:40 PM 32.5775 -100.3739 142° Southeast 444 511 35,000  Level Fort Worth Center
Wed 08:37:42 PM 32.4781 -100.2828 142° Southeast 448 516 35,000  Level Fort Worth Center
Wed 08:38:44 PM 32.3781 -100.1936 143° Southeast 449 517 35,000  Level Fort Worth Center
Wed 08:39:46 PM 32.2800 -100.1036 142° Southeast 450 518 35,000 -581 Level Fort Worth Center
Wed 08:40:48 PM 32.1636 -99.9983 143° Southeast 445 512 33,800 -1,065 Descending Fort Worth Center
Wed 08:41:50 PM 32.0672 -99.9122 143° Southeast 442 509 32,800 -919 Descending Fort Worth Center
Wed 08:42:52 PM 31.9683 -99.8244 143° Southeast 440 506 31,900 -871 Descending Fort Worth Center
Wed 08:43:54 PM 31.8686 -99.7339 142° Southeast 448 516 31,000 -871 Descending Fort Worth Center
Wed 08:44:56 PM 31.7675 -99.6419 142° Southeast 456 525 30,100 -919 Descending Fort Worth Center
Wed 08:45:58 PM 31.6650 -99.5522 143° Southeast 458 527 29,100 -710 Descending Fort Worth Center
Wed 08:46:29 PM 31.6094 -99.5028 143° Southeast 459 528 29,000 -65 Descending Houston Center
Wed 08:47:31 PM 31.4897 -99.3950 142° Southeast 460 529 29,000  Level Houston Center
Wed 08:48:33 PM 31.3858 -99.3033 143° Southeast 461 531 29,000  Level Houston Center
Wed 08:49:35 PM 31.2808 -99.2111 143° Southeast 462 532 29,000  Level Houston Center
Wed 08:50:37 PM 31.1789 -99.1214 143° Southeast 462 532 29,000  Level Houston Center
Wed 08:51:39 PM 31.0747 -99.0297 143° Southeast 462 532 29,000 -435 Level Houston Center
Wed 08:52:41 PM 30.9706 -98.9406 144° Southeast 462 532 28,100 -1,887 Descending Houston Center
Wed 08:53:43 PM 30.8692 -98.8508 143° Southeast 460 529 25,100 -2,952 Descending Houston Center
Wed 08:54:45 PM 30.7869 -98.7189 126° Southeast 449 517 22,000 -2,710 Descending Houston Center
Wed 08:55:47 PM 30.7725 -98.5761 97° East 445 512 19,500 -2,323 Descending Houston Center
Wed 08:56:49 PM 30.7597 -98.4400 96° East 426 490 17,200 -2,419 Descending Houston Center
Wed 08:57:51 PM 30.7458 -98.3086 97° East 408 470 14,500 -2,565 Descending Houston Center
Wed 08:58:53 PM 30.7322 -98.1806 97° East 399 459 11,900 -2,244 Descending Houston Center
Wed 08:59:54 PM 30.7092 -98.0639 103° East 381 438 9,900 -1,415 Descending Houston Center
Wed 09:00:56 PM 30.6394 -98.0106 147° Southeast 306 352 9,000 -1,500 Descending Houston Center
Wed 09:01:58 PM 30.5575 -97.9617 153° Southeast 287 330 6,800 -1,645 Descending Houston Center
Wed 09:03:00 PM 30.4847 -97.9250 157° South 286 329 5,600 -1,016 Descending Houston Center
Wed 09:04:02 PM 30.4133 -97.8911 158° South 281 323 4,700 -823 Descending Houston Center
Wed 09:05:04 PM 30.3450 -97.8583 158° South 271 312 3,900 -823 Descending Houston Center
Wed 09:06:06 PM 30.2769 -97.8244 157° South 269 310 3,000 -439 Descending Houston Center
Wed 09:07:07 PM 30.2061 -97.7889 157° South 269 310 3,000  Level Houston Center
Wed 09:08:09 PM 30.1444 -97.7567 156° South 251 289 3,000 -48 Level Houston Center
Wed 09:09:11 PM 30.0833 -97.7408 167° South 234 269 2,900 -435 Descending Houston Center
Wed 09:10:13 PM 30.0986 -97.6781 74° East 187 215 2,100 -726 Descending Houston Center
Wed 09:11:15 PM 30.1333 -97.6772 North 137 158 1,400 -537 Descending Houston Center
Wed 09:12:16 PM 30.1647 -97.6775 360° North 129 148 1,000 -393 Descending Houston Center
Wed 09:14:00 PM 30.1945 -97.6699 12° North  Level Estimated

Login

Don't have an account? Register now (free) for customized features, flight alerts, and more!